Time;durP1;ratioP1;P1;durP2;ratioP2;P2;SDS_P1;SDS_P2;PMS_P1;PMS_P2;Temp;Humidity;BMP_temperature;BMP_pressure;BME280_temperature;BME280_humidity;BME280_pressure;Samples;Min_cycle;Max_cycle;Signal;HPM_P1;HPM_P2
2021/03/07 00:00:55;;;;;;;8.47;4.60;;;2.80;99.90;;;;;;4949102;28;20730;-76
2021/03/07 00:03:22;;;;;;;6.37;3.90;;;2.80;99.90;;;;;;4954709;28;20205;-75
2021/03/07 00:05:48;;;;;;;6.90;4.40;;;2.90;99.90;;;;;;4948297;29;20376;-76
2021/03/07 00:08:15;;;;;;;9.13;4.50;;;2.80;99.90;;;;;;4955282;29;20606;-77
2021/03/07 00:10:42;;;;;;;7.60;3.77;;;2.80;99.90;;;;;;4955831;28;20304;-76
2021/03/07 00:13:09;;;;;;;7.83;3.67;;;2.80;99.90;;;;;;4951418;28;20218;-76
2021/03/07 00:15:35;;;;;;;5.43;3.73;;;2.80;99.90;;;;;;4955755;28;20282;-75
2021/03/07 00:18:02;;;;;;;6.20;4.63;;;2.80;99.90;;;;;;4949938;28;20233;-75
2021/03/07 00:20:28;;;;;;;5.60;3.80;;;2.80;99.90;;;;;;4953587;29;20310;-76
2021/03/07 00:22:54;;;;;;;9.23;4.37;;;2.80;99.90;;;;;;4952484;28;20236;-76
2021/03/07 00:25:21;;;;;;;5.87;4.20;;;2.80;99.90;;;;;;4951718;29;20210;-77
2021/03/07 00:27:48;;;;;;;7.23;3.60;;;2.80;99.90;;;;;;4954873;28;20205;-76
2021/03/07 00:30:17;;;;;;;5.70;3.73;;;2.80;99.90;;;;;;4953740;29;20258;-76
2021/03/07 00:32:44;;;;;;;6.00;4.07;;;2.80;99.90;;;;;;4948590;28;20201;-76
2021/03/07 00:35:12;;;;;;;7.47;4.23;;;2.80;99.90;;;;;;4948842;28;20664;-76
2021/03/07 00:37:41;;;;;;;6.57;3.90;;;2.80;99.90;;;;;;4947526;29;20300;-76
2021/03/07 00:40:09;;;;;;;7.73;4.20;;;2.80;99.90;;;;;;4952902;28;20759;-75
2021/03/07 00:42:36;;;;;;;10.67;3.83;;;2.80;99.90;;;;;;4953475;28;20224;-77
2021/03/07 00:45:05;;;;;;;7.40;4.10;;;2.80;99.90;;;;;;4953446;28;20216;-76
2021/03/07 00:47:32;;;;;;;5.93;4.13;;;2.80;99.90;;;;;;4947482;29;20230;-75
2021/03/07 00:49:58;;;;;;;6.97;4.23;;;2.80;99.90;;;;;;4948490;29;20209;-76
2021/03/07 00:52:24;;;;;;;5.97;3.73;;;2.80;99.90;;;;;;4950143;29;20214;-75
2021/03/07 00:54:51;;;;;;;6.23;3.67;;;2.80;99.90;;;;;;4951922;28;20254;-75
2021/03/07 00:57:17;;;;;;;6.20;3.90;;;2.80;99.90;;;;;;4948831;28;20248;-75
2021/03/07 00:59:43;;;;;;;7.57;4.77;;;2.80;99.90;;;;;;4951792;28;20253;-76
2021/03/07 01:02:10;;;;;;;8.17;4.20;;;2.80;99.90;;;;;;4951520;28;20397;-75
2021/03/07 01:04:37;;;;;;;6.77;4.00;;;2.80;99.90;;;;;;4948488;28;20216;-76
2021/03/07 01:07:03;;;;;;;10.90;4.97;;;2.80;99.90;;;;;;4955585;28;20253;-75
2021/03/07 01:09:30;;;;;;;5.50;4.17;;;2.80;99.90;;;;;;4952266;29;21203;-76
2021/03/07 01:11:57;;;;;;;7.03;4.30;;;2.80;99.90;;;;;;4957790;28;20582;-76
2021/03/07 01:14:24;;;;;;;7.80;3.83;;;2.90;99.90;;;;;;4952507;29;20263;-76
2021/03/07 01:16:50;;;;;;;7.33;4.10;;;2.80;99.90;;;;;;4952613;29;20289;-75
2021/03/07 01:19:17;;;;;;;6.70;3.90;;;2.80;99.90;;;;;;4953254;29;20215;-75
2021/03/07 01:21:44;;;;;;;6.77;4.10;;;2.80;99.90;;;;;;4949189;29;20215;-75
2021/03/07 01:24:10;;;;;;;6.40;4.20;;;2.90;99.90;;;;;;4951731;29;20719;-77
2021/03/07 01:26:37;;;;;;;5.27;3.93;;;2.90;99.90;;;;;;4950867;29;20222;-76
2021/03/07 01:29:04;;;;;;;7.27;3.90;;;2.90;99.90;;;;;;4954025;28;20229;-76
2021/03/07 01:31:31;;;;;;;6.70;3.77;;;2.90;99.90;;;;;;4950629;28;20241;-74
2021/03/07 01:33:57;;;;;;;5.53;3.67;;;2.90;99.90;;;;;;4952118;29;20237;-76
2021/03/07 01:36:24;;;;;;;6.10;4.03;;;2.90;99.90;;;;;;4949774;28;20314;-76
2021/03/07 01:38:50;;;;;;;6.60;4.47;;;2.90;99.90;;;;;;4954550;29;20296;-76
2021/03/07 01:41:17;;;;;;;6.77;4.07;;;2.90;99.90;;;;;;4952108;28;20340;-77
2021/03/07 01:43:43;;;;;;;6.57;4.07;;;2.90;99.90;;;;;;4953971;28;21022;-75
2021/03/07 01:46:10;;;;;;;5.00;3.73;;;2.90;99.90;;;;;;4948439;28;20225;-76
2021/03/07 01:48:37;;;;;;;6.23;4.20;;;2.90;99.90;;;;;;4949170;28;20290;-76
2021/03/07 01:51:05;;;;;;;5.63;4.23;;;2.90;99.90;;;;;;4952492;28;20288;-77
2021/03/07 01:53:33;;;;;;;4.60;3.87;;;2.90;99.90;;;;;;4948844;29;20227;-76
2021/03/07 01:56:00;;;;;;;5.83;4.17;;;2.90;99.90;;;;;;4947745;28;20209;-76
2021/03/07 01:58:29;;;;;;;5.93;4.43;;;2.90;99.90;;;;;;4950389;28;20274;-76
2021/03/07 02:00:56;;;;;;;5.80;4.17;;;2.90;99.90;;;;;;4947234;29;20295;-76
2021/03/07 02:03:23;;;;;;;6.27;4.33;;;3.00;99.90;;;;;;4948888;28;20296;-76
2021/03/07 02:05:49;;;;;;;6.10;4.33;;;2.90;99.90;;;;;;4953756;29;20323;-75
2021/03/07 02:08:18;;;;;;;6.30;4.37;;;2.90;99.90;;;;;;4953313;28;20303;-75
2021/03/07 02:10:50;;;;;;;6.73;4.60;;;2.90;99.90;;;;;;4951050;28;20243;-75
2021/03/07 02:13:18;;;;;;;7.20;4.40;;;3.00;99.90;;;;;;4952743;28;20203;-75
2021/03/07 02:15:47;;;;;;;9.37;5.03;;;2.90;99.90;;;;;;4948930;28;20205;-76
2021/03/07 02:18:15;;;;;;;7.10;4.53;;;2.90;99.90;;;;;;4952189;28;20264;-75
2021/03/07 02:20:49;;;;;;;10.43;5.27;;;2.90;99.90;;;;;;4951568;28;20217;-75
2021/03/07 02:23:18;;;;;;;8.60;5.47;;;2.90;99.90;;;;;;4951404;28;20228;-75
2021/03/07 02:25:46;;;;;;;7.33;5.10;;;3.00;99.90;;;;;;4949462;28;20205;-76
2021/03/07 02:28:13;;;;;;;9.53;5.20;;;2.90;99.90;;;;;;4952859;28;20206;-75
2021/03/07 02:30:40;;;;;;;7.00;4.93;;;2.90;99.90;;;;;;4950094;28;20216;-76
2021/03/07 02:33:13;;;;;;;7.77;4.97;;;2.90;99.90;;;;;;4951329;28;20284;-76
2021/03/07 02:35:45;;;;;;;8.23;5.00;;;2.90;99.90;;;;;;4947450;29;20297;-76
2021/03/07 02:38:13;;;;;;;8.13;4.67;;;2.90;99.90;;;;;;4952611;29;20253;-75
2021/03/07 02:40:40;;;;;;;6.87;5.47;;;2.90;99.90;;;;;;4943291;29;20578;-74
2021/03/07 02:43:13;;;;;;;6.30;4.77;;;2.90;99.90;;;;;;4950328;29;20232;-75
2021/03/07 02:45:41;;;;;;;7.43;5.23;;;2.90;99.90;;;;;;4951314;28;20213;-76
2021/03/07 02:48:09;;;;;;;7.37;5.23;;;2.90;99.90;;;;;;4948354;29;20206;-76
2021/03/07 02:50:36;;;;;;;8.20;4.93;;;2.90;99.90;;;;;;4952829;28;20679;-76
2021/03/07 02:53:06;;;;;;;7.10;4.80;;;3.00;99.90;;;;;;4949920;28;20201;-75
2021/03/07 02:55:36;;;;;;;5.83;4.60;;;3.00;99.90;;;;;;4952259;29;20300;-77
2021/03/07 02:58:05;;;;;;;7.63;5.00;;;3.00;99.90;;;;;;4952333;29;20209;-76
2021/03/07 03:00:33;;;;;;;9.40;4.47;;;3.00;99.90;;;;;;4949184;28;20666;-76
2021/03/07 03:03:05;;;;;;;8.90;5.10;;;2.90;99.90;;;;;;4946771;29;20202;-76
2021/03/07 03:05:33;;;;;;;7.03;4.60;;;2.90;99.90;;;;;;4948651;28;20209;-76
2021/03/07 03:08:01;;;;;;;7.00;4.37;;;2.90;99.90;;;;;;4952863;28;20269;-77
2021/03/07 03:10:30;;;;;;;8.50;4.80;;;2.90;99.90;;;;;;4953937;28;20213;-76
2021/03/07 03:12:58;;;;;;;8.53;4.70;;;2.90;99.90;;;;;;4949808;28;20266;-76
2021/03/07 03:15:25;;;;;;;8.87;5.03;;;2.90;99.90;;;;;;4953723;28;20657;-76
2021/03/07 03:17:54;;;;;;;7.93;4.70;;;2.90;99.90;;;;;;4948782;28;20237;-75
2021/03/07 03:20:21;;;;;;;6.40;4.70;;;3.00;99.90;;;;;;4951894;29;20205;-76
2021/03/07 03:22:48;;;;;;;7.90;4.00;;;3.00;99.90;;;;;;4951459;28;20211;-76
2021/03/07 03:25:15;;;;;;;7.50;4.70;;;3.00;99.90;;;;;;4946819;29;20209;-75
2021/03/07 03:27:42;;;;;;;5.87;4.20;;;3.00;99.90;;;;;;4954165;28;20224;-75
2021/03/07 03:30:11;;;;;;;10.10;4.40;;;3.00;99.90;;;;;;4953360;28;20213;-76
2021/03/07 03:32:38;;;;;;;6.03;4.00;;;3.00;99.90;;;;;;4952566;29;20557;-76
2021/03/07 03:35:09;;;;;;;7.20;4.03;;;3.00;99.90;;;;;;4951826;28;20201;-76
2021/03/07 03:37:36;;;;;;;6.90;4.93;;;3.00;99.90;;;;;;4955742;28;20202;-75
2021/03/07 03:40:03;;;;;;;5.87;4.23;;;3.00;99.90;;;;;;4953531;28;20212;-74
2021/03/07 03:42:31;;;;;;;7.73;3.60;;;3.00;99.90;;;;;;4954582;28;20220;-75
2021/03/07 03:44:59;;;;;;;7.63;4.47;;;3.00;99.90;;;;;;4957975;28;20220;-75
2021/03/07 03:47:28;;;;;;;5.20;3.80;;;3.00;99.90;;;;;;4954531;28;20233;-76
2021/03/07 03:49:58;;;;;;;6.57;3.93;;;3.00;99.90;;;;;;4954335;29;20335;-75
2021/03/07 03:52:26;;;;;;;7.00;3.97;;;3.00;99.90;;;;;;4954633;28;20292;-76
2021/03/07 03:54:59;;;;;;;6.17;3.90;;;3.10;99.90;;;;;;4951283;28;20733;-76
2021/03/07 03:57:29;;;;;;;4.93;3.73;;;3.10;99.90;;;;;;4945703;29;20203;-75
2021/03/07 03:59:57;;;;;;;5.67;4.17;;;3.10;99.90;;;;;;4952282;28;20300;-76
2021/03/07 04:02:25;;;;;;;7.87;3.93;;;3.10;99.90;;;;;;4952830;28;20746;-75
2021/03/07 04:04:54;;;;;;;6.83;3.60;;;3.10;99.90;;;;;;4955331;28;20214;-75
2021/03/07 04:07:23;;;;;;;5.10;4.00;;;3.10;99.90;;;;;;4952065;28;20233;-75
2021/03/07 04:09:51;;;;;;;9.13;4.17;;;3.10;99.90;;;;;;4954375;28;20636;-75
2021/03/07 04:12:18;;;;;;;8.07;3.80;;;3.10;99.90;;;;;;4954460;28;20213;-75
2021/03/07 04:14:45;;;;;;;6.53;3.87;;;3.10;99.90;;;;;;4951521;28;20228;-75
2021/03/07 04:17:12;;;;;;;6.13;4.10;;;3.10;99.90;;;;;;4950738;28;20252;-76
2021/03/07 04:19:40;;;;;;;5.60;4.30;;;3.10;99.90;;;;;;4949825;28;20241;-76
2021/03/07 04:22:06;;;;;;;6.13;3.97;;;3.10;99.90;;;;;;4956659;28;20293;-75
2021/03/07 04:24:33;;;;;;;8.30;3.80;;;3.00;99.90;;;;;;4956588;28;20582;-76
2021/03/07 04:27:00;;;;;;;5.60;3.80;;;3.10;99.90;;;;;;4949624;28;20324;-75
2021/03/07 04:29:27;;;;;;;7.20;4.57;;;3.10;99.90;;;;;;4957000;28;20212;-75
2021/03/07 04:31:55;;;;;;;6.67;4.23;;;3.10;99.90;;;;;;4952634;28;20256;-76
2021/03/07 04:34:23;;;;;;;5.40;4.00;;;3.10;99.90;;;;;;4950059;29;20217;-76
2021/03/07 04:36:51;;;;;;;4.70;3.70;;;3.10;99.90;;;;;;4948529;28;20824;-76
2021/03/07 04:39:18;;;;;;;5.50;4.10;;;3.10;99.90;;;;;;4955918;29;20739;-75
2021/03/07 04:41:44;;;;;;;5.13;3.73;;;3.10;99.90;;;;;;4954794;28;20643;-76
2021/03/07 04:44:12;;;;;;;6.03;3.87;;;3.10;99.90;;;;;;4954377;28;20278;-76
2021/03/07 04:46:38;;;;;;;4.37;3.87;;;3.10;99.90;;;;;;4954989;28;20221;-75
2021/03/07 04:49:05;;;;;;;6.87;3.83;;;3.10;99.90;;;;;;4951965;28;20218;-76
2021/03/07 04:51:31;;;;;;;5.23;3.53;;;3.10;99.90;;;;;;4954084;28;20340;-76
2021/03/07 04:53:58;;;;;;;4.77;4.00;;;3.10;99.90;;;;;;4952366;28;20700;-76
2021/03/07 04:56:27;;;;;;;6.03;3.80;;;3.20;99.90;;;;;;4953900;28;20291;-75
2021/03/07 04:58:54;;;;;;;6.67;3.93;;;3.20;99.90;;;;;;4952731;29;20206;-77
2021/03/07 05:01:21;;;;;;;8.47;4.10;;;3.10;99.90;;;;;;4956228;28;20621;-75
2021/03/07 05:03:48;;;;;;;6.97;4.10;;;3.20;99.90;;;;;;4956455;28;20259;-76
2021/03/07 05:06:14;;;;;;;6.63;3.83;;;3.20;99.90;;;;;;4953097;29;20315;-75
2021/03/07 05:08:41;;;;;;;6.37;3.33;;;3.20;99.90;;;;;;4952536;28;20242;-76
2021/03/07 05:11:07;;;;;;;7.70;3.73;;;3.20;99.90;;;;;;4950141;29;20296;-75
2021/03/07 05:13:34;;;;;;;4.53;3.53;;;3.20;99.90;;;;;;4951780;29;20250;-76
2021/03/07 05:16:00;;;;;;;7.23;3.73;;;3.20;99.90;;;;;;4946805;29;20746;-76
2021/03/07 05:18:27;;;;;;;5.83;3.80;;;3.20;99.90;;;;;;4947762;29;20264;-75
2021/03/07 05:20:54;;;;;;;6.97;3.63;;;3.20;99.90;;;;;;4952209;28;20205;-75
2021/03/07 05:23:20;;;;;;;5.17;3.80;;;3.20;99.90;;;;;;4947376;28;20233;-77
2021/03/07 05:25:46;;;;;;;5.93;3.60;;;3.20;99.90;;;;;;4952680;28;20213;-75
2021/03/07 05:28:13;;;;;;;6.57;4.07;;;3.20;99.90;;;;;;4951660;28;20312;-76
2021/03/07 05:30:39;;;;;;;4.97;3.50;;;3.20;99.90;;;;;;4952290;28;20264;-77
2021/03/07 05:33:06;;;;;;;5.13;4.13;;;3.20;99.90;;;;;;4952949;28;20209;-75
2021/03/07 05:35:33;;;;;;;6.70;4.00;;;3.20;99.90;;;;;;4951361;29;20261;-76
2021/03/07 05:37:59;;;;;;;4.40;4.00;;;3.20;99.90;;;;;;4952049;29;20220;-77
2021/03/07 05:40:26;;;;;;;5.23;4.20;;;3.20;99.90;;;;;;4947775;28;20245;-76
2021/03/07 05:42:53;;;;;;;6.57;3.90;;;3.20;99.90;;;;;;4949297;28;20213;-76
2021/03/07 05:45:20;;;;;;;5.63;3.60;;;3.20;99.90;;;;;;4952098;28;20213;-76
2021/03/07 05:47:46;;;;;;;3.50;3.20;;;3.30;99.90;;;;;;4951030;28;20312;-75
2021/03/07 05:50:13;;;;;;;5.37;3.23;;;3.20;99.90;;;;;;4949194;28;20216;-76
2021/03/07 05:52:41;;;;;;;5.03;3.70;;;3.30;99.90;;;;;;4945378;28;20589;-76
2021/03/07 05:55:08;;;;;;;4.80;3.13;;;3.30;99.90;;;;;;4979198;28;20209;-75
2021/03/07 05:57:37;;;;;;;6.10;3.10;;;3.20;99.90;;;;;;4950805;28;20214;-76
2021/03/07 06:00:06;;;;;;;4.20;3.40;;;3.30;99.90;;;;;;4950517;29;20299;-76
2021/03/07 06:02:32;;;;;;;5.83;3.27;;;3.20;99.90;;;;;;4953304;28;20709;-76
2021/03/07 06:04:59;;;;;;;5.33;2.97;;;3.30;99.90;;;;;;4952644;28;20260;-75
2021/03/07 06:07:25;;;;;;;3.50;3.10;;;3.30;99.90;;;;;;4951276;28;20741;-75
2021/03/07 06:10:11;;;;;;;4.13;3.27;;;3.30;99.90;;;;;;4944303;28;20226;-76
2021/03/07 06:12:38;;;;;;;5.53;3.47;;;3.20;99.90;;;;;;4948089;28;20198;-76
2021/03/07 06:15:06;;;;;;;4.73;3.07;;;3.30;99.90;;;;;;4949217;29;20226;-74
2021/03/07 06:17:43;;;;;;;4.63;2.77;;;3.30;99.90;;;;;;4952138;28;20256;-75
2021/03/07 06:20:11;;;;;;;3.33;2.93;;;3.30;99.90;;;;;;4947947;29;20221;-76
2021/03/07 06:22:38;;;;;;;6.60;3.13;;;3.30;99.90;;;;;;4950263;28;20208;-75
2021/03/07 06:25:07;;;;;;;4.13;3.30;;;3.30;99.90;;;;;;4953331;28;20223;-76
2021/03/07 06:27:34;;;;;;;5.87;3.43;;;3.30;99.90;;;;;;4954489;28;20273;-76
2021/03/07 06:30:05;;;;;;;3.87;3.27;;;3.30;99.90;;;;;;4948557;29;20217;-76
2021/03/07 06:32:46;;;;;;;3.53;3.23;;;3.30;99.90;;;;;;4951349;28;20279;-76
2021/03/07 06:35:13;;;;;;;7.17;3.40;;;3.30;99.90;;;;;;4947836;28;20232;-76
2021/03/07 06:37:58;;;;;;;4.27;3.20;;;3.30;99.90;;;;;;4952300;28;20220;-75
2021/03/07 06:40:30;;;;;;;5.70;2.73;;;3.30;99.90;;;;;;4946355;28;20213;-75
2021/03/07 06:42:57;;;;;;;6.23;2.93;;;3.40;99.90;;;;;;4945751;29;20670;-76
2021/03/07 06:45:24;;;;;;;2.70;2.50;;;3.30;99.90;;;;;;4949588;29;20228;-74
2021/03/07 06:47:58;;;;;;;2.80;2.50;;;3.30;99.90;;;;;;4950726;28;20521;-76
2021/03/07 06:50:25;;;;;;;6.60;2.97;;;3.30;99.90;;;;;;4950328;28;20260;-78
2021/03/07 06:52:54;;;;;;;3.10;2.50;;;3.40;99.90;;;;;;4951823;28;20209;-76
2021/03/07 06:55:23;;;;;;;5.93;2.67;;;3.30;99.90;;;;;;4950010;28;20229;-76
2021/03/07 06:57:51;;;;;;;3.40;2.50;;;3.40;99.90;;;;;;4947031;28;20631;-74
2021/03/07 07:00:34;;;;;;;4.70;3.10;;;3.40;99.90;;;;;;4948651;29;20263;-75
2021/03/07 07:03:10;;;;;;;4.63;2.93;;;3.40;99.90;;;;;;4950610;29;20209;-71
2021/03/07 07:05:39;;;;;;;4.73;2.90;;;3.40;99.90;;;;;;4955503;29;20217;-77
2021/03/07 07:08:05;;;;;;;3.20;2.63;;;3.40;99.90;;;;;;4945222;28;20316;-73
2021/03/07 07:10:55;;;;;;;2.70;2.50;;;3.40;99.90;;;;;;4956418;29;20681;-75
2021/03/07 07:13:23;;;;;;;7.50;3.37;;;3.40;99.90;;;;;;4950075;29;20857;-78
2021/03/07 07:15:57;;;;;;;6.23;3.10;;;3.40;99.90;;;;;;4954840;29;20541;-76
2021/03/07 07:18:24;;;;;;;6.50;3.00;;;3.40;99.90;;;;;;4950719;29;20236;-77
2021/03/07 07:20:51;;;;;;;5.47;3.03;;;3.40;99.90;;;;;;4956142;28;20210;-76
2021/03/07 07:23:19;;;;;;;4.87;3.20;;;3.50;99.90;;;;;;4954995;28;20217;-78
2021/03/07 07:25:45;;;;;;;3.77;2.73;;;3.40;99.90;;;;;;4949913;28;20217;-75
2021/03/07 07:28:12;;;;;;;4.43;2.60;;;3.40;99.90;;;;;;4943501;28;20226;-73
2021/03/07 07:30:39;;;;;;;6.80;2.97;;;3.40;99.90;;;;;;4955985;28;20292;-76
2021/03/07 07:33:11;;;;;;;4.60;3.10;;;3.40;99.90;;;;;;4943081;29;20533;-76
2021/03/07 07:35:40;;;;;;;2.70;2.40;;;3.40;99.90;;;;;;4953111;29;20240;-76
2021/03/07 07:38:07;;;;;;;3.93;2.90;;;3.30;99.90;;;;;;4950119;29;20284;-72
2021/03/07 07:40:36;;;;;;;4.97;2.73;;;3.30;99.90;;;;;;4949128;28;20214;-73
2021/03/07 07:43:03;;;;;;;3.70;2.60;;;3.30;99.90;;;;;;4949814;28;20296;-72
2021/03/07 07:45:32;;;;;;;2.47;2.27;;;3.30;99.90;;;;;;4947620;28;20206;-70
2021/03/07 07:47:59;;;;;;;3.50;2.13;;;3.30;99.90;;;;;;4949081;28;20610;-71
2021/03/07 07:50:36;;;;;;;7.73;2.50;;;3.30;99.90;;;;;;4943294;29;20206;-73
2021/03/07 07:53:04;;;;;;;5.90;2.37;;;3.30;99.90;;;;;;4946043;28;20208;-71
2021/03/07 07:55:47;;;;;;;3.73;2.53;;;3.30;99.90;;;;;;4952349;29;20224;-73
2021/03/07 07:58:47;;;;;;;6.07;2.70;;;3.30;99.90;;;;;;4949624;28;20640;-74
2021/03/07 08:01:14;;;;;;;6.13;2.87;;;3.30;99.90;;;;;;4943302;28;20316;-72
2021/03/07 08:03:43;;;;;;;3.13;2.63;;;3.30;99.90;;;;;;4944598;28;20296;-73
2021/03/07 08:06:10;;;;;;;3.27;2.50;;;3.30;99.90;;;;;;4945886;28;20271;-73
2021/03/07 08:08:39;;;;;;;2.60;2.30;;;3.40;99.90;;;;;;4949497;29;20702;-73
2021/03/07 08:11:06;;;;;;;4.33;2.20;;;3.40;99.90;;;;;;4946981;28;20599;-73
2021/03/07 08:13:50;;;;;;;13.53;2.27;;;3.40;99.90;;;;;;4945301;28;20639;-72
2021/03/07 08:16:40;;;;;;;4.60;2.10;;;3.40;99.90;;;;;;4946879;29;20204;-74
2021/03/07 08:19:09;;;;;;;4.37;2.50;;;3.40;99.90;;;;;;4946236;28;20244;-74
2021/03/07 08:22:03;;;;;;;5.43;2.70;;;3.40;99.90;;;;;;4944610;29;20754;-72
2021/03/07 08:24:57;;;;;;;5.20;2.20;;;3.40;99.90;;;;;;4939978;28;20217;-72
2021/03/07 08:27:38;;;;;;;4.50;2.40;;;3.40;99.90;;;;;;4940256;29;20249;-73
2021/03/07 08:30:07;;;;;;;5.20;2.23;;;3.40;99.90;;;;;;4948674;29;20659;-74
2021/03/07 08:32:39;;;;;;;3.33;2.30;;;3.40;99.90;;;;;;4945901;28;20818;-74
2021/03/07 08:35:19;;;;;;;5.33;2.40;;;3.40;99.90;;;;;;4948049;29;20292;-69
2021/03/07 08:38:08;;;;;;;5.47;2.53;;;3.40;99.90;;;;;;4947943;28;20202;-75
2021/03/07 08:40:36;;;;;;;3.93;2.40;;;3.40;99.90;;;;;;4948300;28;20321;-74
2021/03/07 08:43:51;;;;;;;3.43;2.00;;;3.30;99.90;;;;;;4949357;28;20260;-73
2021/03/07 08:46:18;;;;;;;5.00;2.20;;;3.30;99.90;;;;;;4947666;28;20283;-74
2021/03/07 08:48:47;;;;;;;4.53;2.50;;;3.30;99.90;;;;;;4949067;28;20766;-74
2021/03/07 08:51:17;;;;;;;4.07;2.60;;;3.30;99.90;;;;;;4946969;28;20305;-74
2021/03/07 08:53:45;;;;;;;4.40;2.60;;;3.30;99.90;;;;;;4949452;29;20271;-74
2021/03/07 08:56:13;;;;;;;3.87;2.13;;;3.30;99.90;;;;;;4947958;29;20224;-73
2021/03/07 08:58:40;;;;;;;4.63;2.10;;;3.30;99.90;;;;;;4953365;28;20202;-73
2021/03/07 09:01:08;;;;;;;4.40;2.00;;;3.30;99.90;;;;;;4952563;28;20673;-74
2021/03/07 09:03:34;;;;;;;4.70;2.20;;;3.30;99.90;;;;;;4951715;29;20229;-74
2021/03/07 09:06:09;;;;;;;4.33;2.23;;;3.20;99.90;;;;;;4951560;28;20288;-74
2021/03/07 09:08:36;;;;;;;4.70;2.60;;;3.20;99.90;;;;;;4951091;29;20283;-74
2021/03/07 09:11:07;;;;;;;2.23;1.73;;;3.20;99.90;;;;;;4951330;28;20205;-74
2021/03/07 09:13:33;;;;;;;2.87;2.60;;;3.20;99.90;;;;;;4951486;28;20253;-75
2021/03/07 09:16:02;;;;;;;2.83;2.00;;;3.10;99.90;;;;;;4948467;29;20263;-74
2021/03/07 09:18:30;;;;;;;2.50;2.00;;;3.10;99.90;;;;;;4951467;28;20331;-74
2021/03/07 09:20:58;;;;;;;3.40;2.57;;;3.10;99.90;;;;;;4947512;28;20288;-74
2021/03/07 09:23:31;;;;;;;3.30;2.50;;;3.10;99.90;;;;;;4947437;28;20213;-75
2021/03/07 09:25:59;;;;;;;3.50;2.30;;;3.10;99.90;;;;;;4945173;29;20209;-74
2021/03/07 09:28:34;;;;;;;4.80;2.60;;;3.10;99.90;;;;;;4940502;28;20304;-75
2021/03/07 09:31:01;;;;;;;4.60;2.63;;;3.10;99.90;;;;;;4945287;29;20283;-75
2021/03/07 09:33:29;;;;;;;3.60;2.33;;;3.10;99.90;;;;;;4947339;28;20207;-76
2021/03/07 09:36:04;;;;;;;3.53;2.50;;;3.10;99.90;;;;;;4950165;28;20269;-74
2021/03/07 09:38:47;;;;;;;4.70;2.53;;;3.10;99.90;;;;;;4947536;28;20277;-73
2021/03/07 09:41:27;;;;;;;10.70;2.67;;;3.20;99.90;;;;;;4945039;29;20292;-73
2021/03/07 09:43:55;;;;;;;5.37;2.97;;;3.20;99.90;;;;;;4938024;28;20314;-72
2021/03/07 09:46:22;;;;;;;4.20;2.63;;;3.20;99.90;;;;;;4945054;29;20221;-73
2021/03/07 09:48:50;;;;;;;5.10;3.13;;;3.20;99.90;;;;;;4976594;28;20301;-75
2021/03/07 09:51:17;;;;;;;4.63;2.83;;;3.20;99.90;;;;;;4942536;28;20271;-75
2021/03/07 09:53:44;;;;;;;4.30;2.50;;;3.20;99.90;;;;;;4944101;28;20213;-74
2021/03/07 09:56:25;;;;;;;3.73;2.70;;;3.30;99.90;;;;;;4952006;28;20264;-74
2021/03/07 09:58:52;;;;;;;5.53;2.70;;;3.30;99.90;;;;;;4945539;29;20209;-72
2021/03/07 10:01:19;;;;;;;5.00;3.23;;;3.30;99.90;;;;;;4949593;28;20217;-72
2021/03/07 10:03:46;;;;;;;5.03;2.93;;;3.30;99.90;;;;;;4937854;28;20206;-75
2021/03/07 10:06:16;;;;;;;6.13;3.37;;;3.30;99.90;;;;;;4948062;28;20235;-73
2021/03/07 10:08:44;;;;;;;4.20;2.80;;;3.30;99.90;;;;;;4949161;28;20572;-73
2021/03/07 10:11:16;;;;;;;5.37;3.10;;;3.30;99.90;;;;;;4948573;28;20249;-74
2021/03/07 10:13:45;;;;;;;5.10;2.80;;;3.30;99.90;;;;;;4942258;28;20238;-73
2021/03/07 10:16:24;;;;;;;4.90;2.97;;;3.40;99.90;;;;;;4946215;28;20543;-73
2021/03/07 10:19:05;;;;;;;5.90;3.27;;;3.20;99.90;;;;;;4951362;28;20328;-74
2021/03/07 10:21:32;;;;;;;6.27;3.50;;;3.20;99.90;;;;;;4948836;29;20209;-72
2021/03/07 10:24:06;;;;;;;5.40;2.83;;;3.20;99.90;;;;;;4947742;28;20237;-74
2021/03/07 10:26:33;;;;;;;6.27;2.93;;;3.30;99.90;;;;;;4943996;28;20219;-75
2021/03/07 10:29:00;;;;;;;5.77;3.30;;;3.20;99.90;;;;;;4949506;28;20445;-73
2021/03/07 10:31:27;;;;;;;3.33;3.00;;;3.30;99.90;;;;;;4952043;28;20300;-73
2021/03/07 10:33:54;;;;;;;9.20;3.27;;;3.30;99.90;;;;;;4944963;28;20551;-74
2021/03/07 10:36:21;;;;;;;9.60;3.47;;;3.30;99.90;;;;;;4946210;28;20217;-73
2021/03/07 10:38:49;;;;;;;5.43;3.23;;;3.30;99.90;;;;;;4943432;29;20671;-74
2021/03/07 10:41:21;;;;;;;4.30;2.93;;;3.30;99.90;;;;;;4941189;28;20209;-75
2021/03/07 10:43:48;;;;;;;5.57;3.50;;;3.30;99.90;;;;;;4948827;29;20225;-75
2021/03/07 10:46:29;;;;;;;3.97;3.03;;;3.20;99.90;;;;;;4944387;29;20277;-74
2021/03/07 10:48:57;;;;;;;5.33;3.60;;;3.30;99.90;;;;;;4942892;28;20217;-73
2021/03/07 10:51:24;;;;;;;4.53;3.50;;;3.20;99.90;;;;;;4942614;28;20424;-73
2021/03/07 10:53:51;;;;;;;5.67;3.27;;;3.20;99.90;;;;;;4944938;28;20220;-74
2021/03/07 10:56:18;;;;;;;6.43;3.27;;;3.30;99.90;;;;;;4936958;28;20217;-73
2021/03/07 10:58:44;;;;;;;7.00;3.33;;;3.30;99.90;;;;;;4949653;29;20256;-75
2021/03/07 11:01:14;;;;;;;3.57;3.03;;;3.30;99.90;;;;;;4950936;29;20206;-74
2021/03/07 11:03:42;;;;;;;4.27;3.13;;;3.30;99.90;;;;;;4948278;28;20297;-74
2021/03/07 11:06:08;;;;;;;6.07;3.20;;;3.30;99.90;;;;;;4948223;28;20217;-73
2021/03/07 11:08:35;;;;;;;4.17;2.90;;;3.30;99.90;;;;;;4945185;28;20709;-73
2021/03/07 11:11:02;;;;;;;7.10;3.30;;;3.30;99.90;;;;;;4947924;28;20213;-75
2021/03/07 11:13:28;;;;;;;5.37;3.03;;;3.20;99.90;;;;;;4944280;28;20323;-72
2021/03/07 11:15:54;;;;;;;8.53;3.40;;;3.30;99.90;;;;;;4950014;28;20223;-73
2021/03/07 11:18:21;;;;;;;8.57;3.50;;;3.20;99.90;;;;;;4946731;28;20237;-70
2021/03/07 11:20:49;;;;;;;4.20;3.40;;;3.20;99.90;;;;;;4949086;28;20206;-72
2021/03/07 11:23:15;;;;;;;5.40;3.37;;;3.20;99.90;;;;;;4944314;28;20313;-73
2021/03/07 11:25:42;;;;;;;5.70;3.57;;;3.20;99.90;;;;;;4947225;29;20301;-72
2021/03/07 11:28:08;;;;;;;4.97;3.77;;;3.20;99.90;;;;;;4945413;28;20225;-72
2021/03/07 11:30:36;;;;;;;7.93;3.50;;;3.20;99.90;;;;;;4946367;29;20217;-70
2021/03/07 11:33:02;;;;;;;9.13;3.47;;;3.20;99.90;;;;;;4941088;29;20209;-71
2021/03/07 11:35:29;;;;;;;7.17;3.50;;;3.30;99.90;;;;;;4946206;28;20213;-71
2021/03/07 11:37:58;;;;;;;9.80;4.10;;;3.40;99.90;;;;;;4943798;28;20664;-72
2021/03/07 11:40:24;;;;;;;7.73;3.33;;;3.40;99.90;;;;;;4945996;29;20214;-71
2021/03/07 11:42:50;;;;;;;4.03;3.17;;;3.50;99.90;;;;;;4945897;28;20236;-71
2021/03/07 11:45:17;;;;;;;4.23;3.00;;;3.50;99.90;;;;;;4945171;28;20237;-72
2021/03/07 11:47:43;;;;;;;4.37;3.07;;;3.50;99.90;;;;;;4950072;28;20646;-73
2021/03/07 11:50:11;;;;;;;4.87;3.53;;;3.50;99.90;;;;;;4937063;28;20225;-70
2021/03/07 11:52:38;;;;;;;5.97;3.17;;;3.60;99.90;;;;;;4950434;28;20387;-73
2021/03/07 11:55:06;;;;;;;5.13;3.10;;;3.70;99.90;;;;;;4955084;28;20256;-71
2021/03/07 11:57:34;;;;;;;10.07;3.33;;;3.70;99.90;;;;;;4951874;28;20348;-71
2021/03/07 12:00:00;;;;;;;6.90;3.60;;;3.80;99.90;;;;;;4947541;28;20224;-72
2021/03/07 12:02:27;;;;;;;4.43;3.20;;;3.90;99.90;;;;;;4951086;28;20201;-73
2021/03/07 12:04:53;;;;;;;3.57;3.03;;;3.90;99.90;;;;;;4952778;28;20276;-72
2021/03/07 12:07:19;;;;;;;7.83;2.80;;;4.00;99.90;;;;;;4951330;28;20232;-72
2021/03/07 12:09:46;;;;;;;4.27;2.90;;;4.00;99.90;;;;;;4953915;28;20248;-74
2021/03/07 12:12:14;;;;;;;5.90;3.33;;;4.00;99.90;;;;;;4955386;28;20219;-72
2021/03/07 12:14:41;;;;;;;6.07;3.07;;;4.00;99.90;;;;;;4955148;28;20237;-73
2021/03/07 12:17:08;;;;;;;4.43;2.73;;;3.90;99.90;;;;;;4951250;28;20293;-73
2021/03/07 12:19:34;;;;;;;3.37;2.77;;;3.90;99.90;;;;;;4954713;28;20318;-72
2021/03/07 12:22:00;;;;;;;9.63;3.40;;;3.90;99.90;;;;;;4946298;28;20210;-74
2021/03/07 12:24:28;;;;;;;4.80;2.97;;;3.90;99.90;;;;;;4951960;28;20293;-73
2021/03/07 12:26:55;;;;;;;5.83;3.57;;;3.80;99.90;;;;;;4948463;28;20237;-78
2021/03/07 12:29:22;;;;;;;6.47;3.27;;;3.80;99.90;;;;;;4951984;29;20658;-75
2021/03/07 12:31:49;;;;;;;5.13;3.17;;;3.80;99.90;;;;;;4947446;28;20296;-74
2021/03/07 12:34:15;;;;;;;5.07;2.63;;;3.80;99.90;;;;;;4947857;29;20221;-74
2021/03/07 12:36:41;;;;;;;3.87;3.07;;;3.70;99.90;;;;;;4948750;28;20214;-74
2021/03/07 12:39:08;;;;;;;5.83;3.03;;;3.70;99.90;;;;;;4949334;28;20209;-76
2021/03/07 12:41:34;;;;;;;6.67;2.90;;;3.70;99.90;;;;;;4954560;28;20228;-75
2021/03/07 12:44:00;;;;;;;5.10;2.70;;;3.70;99.90;;;;;;4952156;28;20209;-76
2021/03/07 12:46:27;;;;;;;6.00;3.10;;;3.70;99.90;;;;;;4949767;29;20280;-72
2021/03/07 12:48:54;;;;;;;6.90;2.80;;;3.70;99.90;;;;;;4946023;28;20229;-76
2021/03/07 12:51:20;;;;;;;4.97;3.00;;;3.70;99.90;;;;;;4947859;28;20277;-75
2021/03/07 12:53:47;;;;;;;5.27;3.30;;;3.80;99.90;;;;;;4943836;28;20221;-69
2021/03/07 12:56:13;;;;;;;4.00;2.80;;;3.80;99.90;;;;;;4953959;28;20280;-71
2021/03/07 12:58:39;;;;;;;5.07;3.20;;;3.80;99.90;;;;;;4948248;28;20201;-73
2021/03/07 13:01:06;;;;;;;7.77;3.40;;;3.80;99.90;;;;;;4943882;28;20219;-75
2021/03/07 13:03:33;;;;;;;6.77;3.40;;;3.90;99.90;;;;;;4945828;28;20267;-72
2021/03/07 13:05:59;;;;;;;10.20;4.23;;;3.90;99.90;;;;;;4945053;28;20541;-73